sensor_id;sensor_type;location;lat;lon;timestamp;pressure;altitude;pressure_sealevel;temperature;humidity
30873;BME280;17579;42.690;2.586;2023-01-04T00:01:00;98593.03;;;10.47;54.66
30873;BME280;17579;42.690;2.586;2023-01-04T00:03:25;98593.16;;;10.46;54.81
30873;BME280;17579;42.690;2.586;2023-01-04T00:05:53;98594.97;;;10.45;54.93
30873;BME280;17579;42.690;2.586;2023-01-04T00:08:18;98589.66;;;10.45;54.80
30873;BME280;17579;42.690;2.586;2023-01-04T00:10:44;98588.72;;;10.46;54.73
30873;BME280;17579;42.690;2.586;2023-01-04T00:13:09;98596.78;;;10.45;55.17
30873;BME280;17579;42.690;2.586;2023-01-04T00:15:35;98590.31;;;10.49;55.07
30873;BME280;17579;42.690;2.586;2023-01-04T00:18:01;98587.44;;;10.52;54.95
30873;BME280;17579;42.690;2.586;2023-01-04T00:20:26;98584.56;;;10.55;55.17
30873;BME280;17579;42.690;2.586;2023-01-04T00:22:52;98583.50;;;10.57;54.78
30873;BME280;17579;42.690;2.586;2023-01-04T00:25:17;98579.88;;;10.58;54.84
30873;BME280;17579;42.690;2.586;2023-01-04T00:27:43;98572.91;;;10.57;54.82
30873;BME280;17579;42.690;2.586;2023-01-04T00:30:09;98577.22;;;10.58;55.01
30873;BME280;17579;42.690;2.586;2023-01-04T00:32:35;98572.56;;;10.62;55.18
30873;BME280;17579;42.690;2.586;2023-01-04T00:35:00;98568.97;;;10.63;55.09
30873;BME280;17579;42.690;2.586;2023-01-04T00:37:26;98561.75;;;10.65;55.17
30873;BME280;17579;42.690;2.586;2023-01-04T00:39:51;98570.53;;;10.66;54.91
30873;BME280;17579;42.690;2.586;2023-01-04T00:42:17;98563.47;;;10.66;55.06
30873;BME280;17579;42.690;2.586;2023-01-04T00:44:43;98566.09;;;10.66;55.01
30873;BME280;17579;42.690;2.586;2023-01-04T00:47:09;98568.63;;;10.68;55.17
30873;BME280;17579;42.690;2.586;2023-01-04T00:49:34;98562.16;;;10.72;55.40
30873;BME280;17579;42.690;2.586;2023-01-04T00:52:00;98564.47;;;10.77;55.24
30873;BME280;17579;42.690;2.586;2023-01-04T00:54:26;98564.22;;;10.80;55.27
30873;BME280;17579;42.690;2.586;2023-01-04T00:56:52;98562.28;;;10.82;55.25
30873;BME280;17579;42.690;2.586;2023-01-04T00:59:19;98561.09;;;10.86;55.08
30873;BME280;17579;42.690;2.586;2023-01-04T01:01:45;98563.63;;;10.87;55.20
30873;BME280;17579;42.690;2.586;2023-01-04T01:04:13;98565.47;;;10.87;54.85
30873;BME280;17579;42.690;2.586;2023-01-04T01:06:39;98561.97;;;10.86;55.11
30873;BME280;17579;42.690;2.586;2023-01-04T01:09:05;98567.16;;;10.88;54.98
30873;BME280;17579;42.690;2.586;2023-01-04T01:11:31;98568.72;;;10.90;54.60
30873;BME280;17579;42.690;2.586;2023-01-04T01:13:58;98570.50;;;10.90;54.59
30873;BME280;17579;42.690;2.586;2023-01-04T01:16:24;98574.03;;;10.90;54.49
30873;BME280;17579;42.690;2.586;2023-01-04T01:18:52;98573.41;;;10.87;54.13
30873;BME280;17579;42.690;2.586;2023-01-04T01:21:21;98569.41;;;10.81;54.28
30873;BME280;17579;42.690;2.586;2023-01-04T01:23:48;98570.47;;;10.79;54.08
30873;BME280;17579;42.690;2.586;2023-01-04T01:26:16;98572.63;;;10.73;54.22
30873;BME280;17579;42.690;2.586;2023-01-04T01:28:42;98570.41;;;10.67;54.24
30873;BME280;17579;42.690;2.586;2023-01-04T01:31:11;98567.63;;;10.57;55.06
30873;BME280;17579;42.690;2.586;2023-01-04T01:33:39;98575.78;;;10.54;54.85
30873;BME280;17579;42.690;2.586;2023-01-04T01:36:05;98577.56;;;10.54;55.14
30873;BME280;17579;42.690;2.586;2023-01-04T01:38:31;98582.88;;;10.54;55.33
30873;BME280;17579;42.690;2.586;2023-01-04T01:40:57;98578.44;;;10.54;55.14
30873;BME280;17579;42.690;2.586;2023-01-04T01:43:45;98577.16;;;10.47;55.57
30873;BME280;17579;42.690;2.586;2023-01-04T01:46:12;98588.03;;;10.55;55.74
30873;BME280;17579;42.690;2.586;2023-01-04T01:48:39;98574.81;;;10.55;55.54
30873;BME280;17579;42.690;2.586;2023-01-04T01:51:05;98576.63;;;10.55;55.59
30873;BME280;17579;42.690;2.586;2023-01-04T01:53:34;98579.38;;;10.53;55.75
30873;BME280;17579;42.690;2.586;2023-01-04T01:56:00;98576.50;;;10.56;55.87
30873;BME280;17579;42.690;2.586;2023-01-04T01:58:31;98574.09;;;10.53;55.84
30873;BME280;17579;42.690;2.586;2023-01-04T02:00:59;98579.38;;;10.53;55.71
30873;BME280;17579;42.690;2.586;2023-01-04T02:03:36;98588.63;;;10.48;55.51
30873;BME280;17579;42.690;2.586;2023-01-04T02:06:06;98588.72;;;10.46;55.71
30873;BME280;17579;42.690;2.586;2023-01-04T02:08:34;98592.53;;;10.42;55.57
30873;BME280;17579;42.690;2.586;2023-01-04T02:11:01;98596.47;;;10.36;55.74
30873;BME280;17579;42.690;2.586;2023-01-04T02:13:29;98599.44;;;10.32;55.83
30873;BME280;17579;42.690;2.586;2023-01-04T02:16:14;98595.19;;;10.29;55.68
30873;BME280;17579;42.690;2.586;2023-01-04T02:18:51;98596.38;;;10.25;55.87
30873;BME280;17579;42.690;2.586;2023-01-04T02:30:31;98588.13;;;10.17;55.50
30873;BME280;17579;42.690;2.586;2023-01-04T02:36:38;98587.63;;;10.12;55.77
30873;BME280;17579;42.690;2.586;2023-01-04T02:39:38;98580.66;;;10.11;55.75
30873;BME280;17579;42.690;2.586;2023-01-04T02:44:53;98583.41;;;10.09;55.53
30873;BME280;17579;42.690;2.586;2023-01-04T02:47:33;98581.31;;;10.01;55.77
30873;BME280;17579;42.690;2.586;2023-01-04T02:53:14;98582.38;;;9.99;55.40
30873;BME280;17579;42.690;2.586;2023-01-04T02:55:50;98583.00;;;9.89;55.22
30873;BME280;17579;42.690;2.586;2023-01-04T02:58:42;98585.38;;;9.81;55.58
30873;BME280;17579;42.690;2.586;2023-01-04T03:04:48;98587.56;;;9.87;55.36
30873;BME280;17579;42.690;2.586;2023-01-04T03:07:52;98583.78;;;9.79;55.85
30873;BME280;17579;42.690;2.586;2023-01-04T03:13:30;98587.13;;;9.81;55.85
30873;BME280;17579;42.690;2.586;2023-01-04T03:16:12;98581.25;;;9.77;55.71
30873;BME280;17579;42.690;2.586;2023-01-04T03:18:43;98573.81;;;9.82;55.83
30873;BME280;17579;42.690;2.586;2023-01-04T03:21:13;98580.19;;;9.80;55.76
30873;BME280;17579;42.690;2.586;2023-01-04T03:23:41;98581.34;;;9.76;55.86
30873;BME280;17579;42.690;2.586;2023-01-04T03:26:27;98569.63;;;9.67;56.33
30873;BME280;17579;42.690;2.586;2023-01-04T03:29:14;98574.69;;;9.70;57.16
30873;BME280;17579;42.690;2.586;2023-01-04T03:31:58;98577.53;;;9.80;57.45
30873;BME280;17579;42.690;2.586;2023-01-04T03:34:38;98583.97;;;9.88;57.74
30873;BME280;17579;42.690;2.586;2023-01-04T03:37:21;98587.47;;;9.89;57.69
30873;BME280;17579;42.690;2.586;2023-01-04T03:40:17;98596.09;;;9.91;57.63
30873;BME280;17579;42.690;2.586;2023-01-04T03:43:15;98590.09;;;10.02;57.63
30873;BME280;17579;42.690;2.586;2023-01-04T03:45:57;98588.59;;;10.11;57.93
30873;BME280;17579;42.690;2.586;2023-01-04T03:48:46;98583.06;;;10.14;57.59
30873;BME280;17579;42.690;2.586;2023-01-04T03:51:19;98580.31;;;10.15;57.82
30873;BME280;17579;42.690;2.586;2023-01-04T03:54:06;98584.75;;;10.15;58.03
30873;BME280;17579;42.690;2.586;2023-01-04T03:56:36;98579.91;;;10.21;58.00
30873;BME280;17579;42.690;2.586;2023-01-04T03:59:06;98576.38;;;10.21;58.16
30873;BME280;17579;42.690;2.586;2023-01-04T04:01:34;98574.59;;;10.21;58.12
30873;BME280;17579;42.690;2.586;2023-01-04T04:04:00;98579.78;;;10.23;58.05
30873;BME280;17579;42.690;2.586;2023-01-04T04:06:38;98575.31;;;10.23;58.01
30873;BME280;17579;42.690;2.586;2023-01-04T04:09:16;98576.16;;;10.24;57.88
30873;BME280;17579;42.690;2.586;2023-01-04T04:11:41;98582.44;;;10.23;58.15
30873;BME280;17579;42.690;2.586;2023-01-04T04:14:07;98581.56;;;10.22;58.15
30873;BME280;17579;42.690;2.586;2023-01-04T04:16:32;98581.56;;;10.22;58.17
30873;BME280;17579;42.690;2.586;2023-01-04T04:18:58;98587.72;;;10.23;58.17
30873;BME280;17579;42.690;2.586;2023-01-04T04:21:24;98589.50;;;10.22;58.04
30873;BME280;17579;42.690;2.586;2023-01-04T04:23:49;98591.31;;;10.22;58.02
30873;BME280;17579;42.690;2.586;2023-01-04T04:26:15;98587.91;;;10.20;57.84
30873;BME280;17579;42.690;2.586;2023-01-04T04:28:41;98583.59;;;10.19;57.88
30873;BME280;17579;42.690;2.586;2023-01-04T04:31:07;98585.25;;;10.20;58.22
30873;BME280;17579;42.690;2.586;2023-01-04T04:33:33;98580.09;;;10.18;58.05
30873;BME280;17579;42.690;2.586;2023-01-04T04:35:58;98582.97;;;10.15;58.08
30873;BME280;17579;42.690;2.586;2023-01-04T04:38:24;98577.66;;;10.15;57.93
30873;BME280;17579;42.690;2.586;2023-01-04T04:40:49;98584.88;;;10.13;57.97
30873;BME280;17579;42.690;2.586;2023-01-04T04:43:27;98584.88;;;10.13;57.95
30873;BME280;17579;42.690;2.586;2023-01-04T04:45:53;98578.94;;;10.10;58.04
30873;BME280;17579;42.690;2.586;2023-01-04T04:48:18;98582.56;;;10.09;57.90
30873;BME280;17579;42.690;2.586;2023-01-04T04:50:44;98574.75;;;10.07;58.09
30873;BME280;17579;42.690;2.586;2023-01-04T04:53:09;98574.00;;;10.05;58.23
30873;BME280;17579;42.690;2.586;2023-01-04T04:55:35;98575.81;;;10.04;58.31
30873;BME280;17579;42.690;2.586;2023-01-04T04:58:00;98569.66;;;10.04;58.42
30873;BME280;17579;42.690;2.586;2023-01-04T05:00:26;98568.00;;;10.03;58.25
30873;BME280;17579;42.690;2.586;2023-01-04T05:02:52;98564.47;;;10.02;58.57
30873;BME280;17579;42.690;2.586;2023-01-04T05:05:18;98563.53;;;10.03;58.61
30873;BME280;17579;42.690;2.586;2023-01-04T05:07:43;98567.00;;;10.04;58.74
30873;BME280;17579;42.690;2.586;2023-01-04T05:10:09;98574.84;;;10.05;58.42
30873;BME280;17579;42.690;2.586;2023-01-04T05:12:35;98568.59;;;10.06;58.54
30873;BME280;17579;42.690;2.586;2023-01-04T05:15:12;98573.88;;;10.06;58.46
30873;BME280;17579;42.690;2.586;2023-01-04T05:17:38;98582.56;;;10.09;58.54
30873;BME280;17579;42.690;2.586;2023-01-04T05:20:03;98579.28;;;10.05;58.41
30873;BME280;17579;42.690;2.586;2023-01-04T05:22:29;98573.06;;;10.06;58.55
30873;BME280;17579;42.690;2.586;2023-01-04T05:24:55;98575.81;;;10.04;58.42
30873;BME280;17579;42.690;2.586;2023-01-04T05:27:20;98575.06;;;10.02;58.29
30873;BME280;17579;42.690;2.586;2023-01-04T05:29:46;98575.91;;;10.03;58.39
30873;BME280;17579;42.690;2.586;2023-01-04T05:32:23;98580.34;;;10.02;58.33
30873;BME280;17579;42.690;2.586;2023-01-04T05:34:49;98580.56;;;9.99;58.18
30873;BME280;17579;42.690;2.586;2023-01-04T05:37:14;98582.38;;;9.99;57.80
30873;BME280;17579;42.690;2.586;2023-01-04T05:39:40;98581.44;;;10.00;57.74
30873;BME280;17579;42.690;2.586;2023-01-04T05:42:05;98576.03;;;10.01;57.47
30873;BME280;17579;42.690;2.586;2023-01-04T05:44:51;98578.56;;;10.03;57.40
30873;BME280;17579;42.690;2.586;2023-01-04T05:47:17;98583.84;;;10.03;57.30
30873;BME280;17579;42.690;2.586;2023-01-04T05:49:43;98578.44;;;10.04;56.76
30873;BME280;17579;42.690;2.586;2023-01-04T05:52:08;98582.03;;;10.03;56.80
30873;BME280;17579;42.690;2.586;2023-01-04T05:54:34;98578.69;;;10.01;56.26
30873;BME280;17579;42.690;2.586;2023-01-04T05:57:00;98587.66;;;9.99;55.99
30873;BME280;17579;42.690;2.586;2023-01-04T05:59:25;98590.53;;;9.96;56.06
30873;BME280;17579;42.690;2.586;2023-01-04T06:01:51;98592.53;;;9.92;55.79
30873;BME280;17579;42.690;2.586;2023-01-04T06:04:16;98595.38;;;9.89;55.76
30873;BME280;17579;42.690;2.586;2023-01-04T06:06:42;98592.97;;;9.86;55.88
30873;BME280;17579;42.690;2.586;2023-01-04T06:09:08;98595.94;;;9.81;55.56
30873;BME280;17579;42.690;2.586;2023-01-04T06:11:33;98601.50;;;9.77;55.40
30873;BME280;17579;42.690;2.586;2023-01-04T06:13:59;98604.38;;;9.74;55.45
30873;BME280;17579;42.690;2.586;2023-01-04T06:16:24;98605.53;;;9.69;55.50
30873;BME280;17579;42.690;2.586;2023-01-04T06:18:50;98610.19;;;9.66;55.49
30873;BME280;17579;42.690;2.586;2023-01-04T06:21:15;98600.78;;;9.62;55.70
30873;BME280;17579;42.690;2.586;2023-01-04T06:23:41;98607.03;;;9.61;55.86
30873;BME280;17579;42.690;2.586;2023-01-04T06:26:06;98607.88;;;9.61;55.36
30873;BME280;17579;42.690;2.586;2023-01-04T06:28:32;98611.47;;;9.60;55.56
30873;BME280;17579;42.690;2.586;2023-01-04T06:31:05;98617.81;;;9.58;55.83
30873;BME280;17579;42.690;2.586;2023-01-04T06:33:32;98610.53;;;9.61;55.65
30873;BME280;17579;42.690;2.586;2023-01-04T06:35:58;98613.34;;;9.58;55.61
30873;BME280;17579;42.690;2.586;2023-01-04T06:38:23;98621.19;;;9.60;55.67
30873;BME280;17579;42.690;2.586;2023-01-04T06:40:49;98611.47;;;9.60;55.46
30873;BME280;17579;42.690;2.586;2023-01-04T06:43:15;98613.91;;;9.63;55.85
30873;BME280;17579;42.690;2.586;2023-01-04T06:45:41;98611.25;;;9.63;55.60
30873;BME280;17579;42.690;2.586;2023-01-04T06:48:07;98611.97;;;9.65;55.21
30873;BME280;17579;42.690;2.586;2023-01-04T06:50:32;98612.84;;;9.66;55.83
30873;BME280;17579;42.690;2.586;2023-01-04T06:52:58;98623.19;;;9.69;55.39
30873;BME280;17579;42.690;2.586;2023-01-04T06:55:23;98618.75;;;9.69;55.25
30873;BME280;17579;42.690;2.586;2023-01-04T06:57:49;98617.69;;;9.72;55.06
30873;BME280;17579;42.690;2.586;2023-01-04T07:00:15;98617.59;;;9.74;54.79
30873;BME280;17579;42.690;2.586;2023-01-04T07:02:41;98624.69;;;9.73;54.70
30873;BME280;17579;42.690;2.586;2023-01-04T07:05:06;98632.59;;;9.73;54.97
30873;BME280;17579;42.690;2.586;2023-01-04T07:07:33;98645.16;;;9.69;54.66
30873;BME280;17579;42.690;2.586;2023-01-04T07:09:59;98648.78;;;9.68;54.59
30873;BME280;17579;42.690;2.586;2023-01-04T07:12:25;98648.66;;;9.70;54.43
30873;BME280;17579;42.690;2.586;2023-01-04T07:14:51;98644.66;;;9.64;54.50
30873;BME280;17579;42.690;2.586;2023-01-04T07:17:16;98655.94;;;9.66;54.22
30873;BME280;17579;42.690;2.586;2023-01-04T07:19:42;98650.97;;;9.62;53.99
30873;BME280;17579;42.690;2.586;2023-01-04T07:22:07;98658.19;;;9.60;54.21
30873;BME280;17579;42.690;2.586;2023-01-04T07:24:33;98650.34;;;9.58;53.91
30873;BME280;17579;42.690;2.586;2023-01-04T07:26:59;98661.66;;;9.60;53.96
30873;BME280;17579;42.690;2.586;2023-01-04T07:29:25;98665.03;;;9.62;53.64
30873;BME280;17579;42.690;2.586;2023-01-04T07:31:51;98665.91;;;9.63;53.78
30873;BME280;17579;42.690;2.586;2023-01-04T07:34:19;98679.22;;;9.61;53.75
30873;BME280;17579;42.690;2.586;2023-01-04T07:36:46;98669.47;;;9.62;53.54
30873;BME280;17579;42.690;2.586;2023-01-04T07:39:12;98673.81;;;9.63;53.79
30873;BME280;17579;42.690;2.586;2023-01-04T07:41:39;98679.00;;;9.64;53.60
30873;BME280;17579;42.690;2.586;2023-01-04T07:44:05;98670.97;;;9.66;53.59
30873;BME280;17579;42.690;2.586;2023-01-04T07:46:31;98675.31;;;9.67;53.36
30873;BME280;17579;42.690;2.586;2023-01-04T07:48:57;98673.28;;;9.70;53.33
30873;BME280;17579;42.690;2.586;2023-01-04T07:51:23;98680.16;;;9.73;53.25
30873;BME280;17579;42.690;2.586;2023-01-04T07:53:49;98680.16;;;9.73;53.40
30873;BME280;17579;42.690;2.586;2023-01-04T07:56:14;98672.13;;;9.75;53.14
30873;BME280;17579;42.690;2.586;2023-01-04T07:58:40;98675.38;;;9.78;53.26
30873;BME280;17579;42.690;2.586;2023-01-04T08:01:12;98671.91;;;9.78;53.64
30873;BME280;17579;42.690;2.586;2023-01-04T08:03:38;98678.56;;;9.83;53.37
30873;BME280;17579;42.690;2.586;2023-01-04T08:06:09;98676.97;;;9.81;53.63
30873;BME280;17579;42.690;2.586;2023-01-04T08:08:35;98675.72;;;9.86;52.99
30873;BME280;17579;42.690;2.586;2023-01-04T08:11:07;98680.16;;;9.86;53.32
30873;BME280;17579;42.690;2.586;2023-01-04T08:13:33;98684.09;;;9.93;52.87
30873;BME280;17579;42.690;2.586;2023-01-04T08:15:59;98683.03;;;9.96;53.10
30873;BME280;17579;42.690;2.586;2023-01-04T08:18:24;98681.88;;;10.00;52.84
30873;BME280;17579;42.690;2.586;2023-01-04T08:20:59;98682.50;;;10.03;52.58
30873;BME280;17579;42.690;2.586;2023-01-04T08:23:25;98683.03;;;10.09;52.97
30873;BME280;17579;42.690;2.586;2023-01-04T08:25:50;98685.44;;;10.12;52.78
30873;BME280;17579;42.690;2.586;2023-01-04T08:28:16;98690.31;;;10.18;52.54
30873;BME280;17579;42.690;2.586;2023-01-04T08:30:42;98676.75;;;10.22;52.19
30873;BME280;17579;42.690;2.586;2023-01-04T08:33:14;98686.38;;;10.23;52.58
30873;BME280;17579;42.690;2.586;2023-01-04T08:35:40;98683.19;;;10.31;52.15
30873;BME280;17579;42.690;2.586;2023-01-04T08:38:05;98688.31;;;10.34;51.88
30873;BME280;17579;42.690;2.586;2023-01-04T08:40:31;98688.09;;;10.37;51.81
30873;BME280;17579;42.690;2.586;2023-01-04T08:42:56;98695.69;;;10.42;51.66
30873;BME280;17579;42.690;2.586;2023-01-04T08:45:22;98685.72;;;10.46;51.07
30873;BME280;17579;42.690;2.586;2023-01-04T08:47:48;98693.16;;;10.53;50.74
30873;BME280;17579;42.690;2.586;2023-01-04T08:50:13;98689.09;;;10.61;50.53
30873;BME280;17579;42.690;2.586;2023-01-04T08:52:41;98700.06;;;10.67;50.47
30873;BME280;17579;42.690;2.586;2023-01-04T08:55:07;98701.31;;;10.74;49.83
30873;BME280;17579;42.690;2.586;2023-01-04T08:57:33;98701.72;;;10.81;49.98
30873;BME280;17579;42.690;2.586;2023-01-04T08:59:59;98698.75;;;10.86;49.52
30873;BME280;17579;42.690;2.586;2023-01-04T09:02:31;98695.91;;;10.89;49.98
30873;BME280;17579;42.690;2.586;2023-01-04T09:04:56;98693.53;;;10.97;49.43
30873;BME280;17579;42.690;2.586;2023-01-04T09:07:28;98698.69;;;10.99;49.50
30873;BME280;17579;42.690;2.586;2023-01-04T09:09:54;98697.41;;;11.04;49.48
30873;BME280;17579;42.690;2.586;2023-01-04T09:12:19;98705.00;;;11.09;49.43
30873;BME280;17579;42.690;2.586;2023-01-04T09:14:45;98701.19;;;11.13;48.94
30873;BME280;17579;42.690;2.586;2023-01-04T09:17:11;98705.94;;;11.21;49.10
30873;BME280;17579;42.690;2.586;2023-01-04T09:19:36;98710.31;;;11.33;49.55
30873;BME280;17579;42.690;2.586;2023-01-04T09:22:02;98711.34;;;11.43;49.31
30873;BME280;17579;42.690;2.586;2023-01-04T09:24:28;98705.06;;;11.44;48.99
30873;BME280;17579;42.690;2.586;2023-01-04T09:26:54;98705.56;;;11.50;49.01
30873;BME280;17579;42.690;2.586;2023-01-04T09:29:19;98706.16;;;11.53;48.56
30873;BME280;17579;42.690;2.586;2023-01-04T09:31:45;98706.31;;;11.63;48.45
30873;BME280;17579;42.690;2.586;2023-01-04T09:34:11;98702.75;;;11.75;48.10
30873;BME280;17579;42.690;2.586;2023-01-04T09:36:37;98698.03;;;11.79;47.91
30873;BME280;17579;42.690;2.586;2023-01-04T09:39:03;98701.31;;;11.83;48.30
30873;BME280;17579;42.690;2.586;2023-01-04T09:41:37;98702.78;;;11.87;48.57
30873;BME280;17579;42.690;2.586;2023-01-04T09:44:43;98703.25;;;11.92;48.63
30873;BME280;17579;42.690;2.586;2023-01-04T09:47:27;98703.94;;;12.07;48.52
30873;BME280;17579;42.690;2.586;2023-01-04T09:50:23;98704.03;;;12.17;47.49
30873;BME280;17579;42.690;2.586;2023-01-04T09:53:08;98701.75;;;12.23;47.68
30873;BME280;17579;42.690;2.586;2023-01-04T09:55:37;98708.03;;;12.34;47.00
30873;BME280;17579;42.690;2.586;2023-01-04T10:00:58;98708.16;;;12.43;47.50
30873;BME280;17579;42.690;2.586;2023-01-04T10:03:31;98705.88;;;12.50;47.00
30873;BME280;17579;42.690;2.586;2023-01-04T10:05:57;98704.41;;;12.57;46.63
30873;BME280;17579;42.690;2.586;2023-01-04T10:08:23;98706.69;;;12.62;46.28
30873;BME280;17579;42.690;2.586;2023-01-04T10:14:08;98703.16;;;12.73;46.63
30873;BME280;17579;42.690;2.586;2023-01-04T10:22:46;98694.56;;;13.03;45.29
30873;BME280;17579;42.690;2.586;2023-01-04T10:25:38;98686.78;;;13.11;45.18
30873;BME280;17579;42.690;2.586;2023-01-04T10:28:21;98685.66;;;13.25;43.98
30873;BME280;17579;42.690;2.586;2023-01-04T10:31:04;98692.97;;;13.33;43.59
30873;BME280;17579;42.690;2.586;2023-01-04T10:33:47;98692.66;;;13.38;43.65
30873;BME280;17579;42.690;2.586;2023-01-04T10:36:19;98688.13;;;13.49;43.45
30873;BME280;17579;42.690;2.586;2023-01-04T10:38:45;98685.00;;;13.65;42.93
30873;BME280;17579;42.690;2.586;2023-01-04T10:41:18;98678.91;;;13.75;42.79
30873;BME280;17579;42.690;2.586;2023-01-04T10:44:02;98678.84;;;13.86;42.64
30873;BME280;17579;42.690;2.586;2023-01-04T10:46:38;98678.75;;;13.97;41.93
30873;BME280;17579;42.690;2.586;2023-01-04T10:49:20;98678.13;;;14.05;42.53
30873;BME280;17579;42.690;2.586;2023-01-04T10:52:16;98670.16;;;14.15;42.40
30873;BME280;17579;42.690;2.586;2023-01-04T10:54:54;98658.19;;;14.30;41.99
30873;BME280;17579;42.690;2.586;2023-01-04T10:57:45;98665.94;;;14.43;42.51
30873;BME280;17579;42.690;2.586;2023-01-04T11:00:18;98666.03;;;14.63;42.20
30873;BME280;17579;42.690;2.586;2023-01-04T11:05:35;98660.34;;;14.97;41.47
30873;BME280;17579;42.690;2.586;2023-01-04T11:08:23;98654.63;;;15.01;41.14
30873;BME280;17579;42.690;2.586;2023-01-04T11:13:41;98655.59;;;15.10;39.71
30873;BME280;17579;42.690;2.586;2023-01-04T11:16:07;98646.34;;;15.14;39.74
30873;BME280;17579;42.690;2.586;2023-01-04T11:18:35;98641.28;;;15.21;39.78
30873;BME280;17579;42.690;2.586;2023-01-04T11:21:05;98643.28;;;15.29;39.06
30873;BME280;17579;42.690;2.586;2023-01-04T11:23:32;98639.31;;;15.33;39.04
30873;BME280;17579;42.690;2.586;2023-01-04T11:26:01;98629.75;;;15.40;39.45
30873;BME280;17579;42.690;2.586;2023-01-04T11:28:51;98621.75;;;15.50;39.66
30873;BME280;17579;42.690;2.586;2023-01-04T11:31:25;98620.78;;;15.61;38.68
30873;BME280;17579;42.690;2.586;2023-01-04T11:33:58;98614.72;;;15.68;38.93
30873;BME280;17579;42.690;2.586;2023-01-04T11:36:33;98611.34;;;15.76;38.60
30873;BME280;17579;42.690;2.586;2023-01-04T11:38:59;98609.66;;;15.85;37.75
30873;BME280;17579;42.690;2.586;2023-01-04T11:41:26;98600.63;;;15.96;37.00
30873;BME280;17579;42.690;2.586;2023-01-04T11:44:03;98601.84;;;16.01;37.29
30873;BME280;17579;42.690;2.586;2023-01-04T11:46:30;98593.81;;;16.11;36.96
30873;BME280;17579;42.690;2.586;2023-01-04T11:48:56;98593.38;;;16.16;35.98
30873;BME280;17579;42.690;2.586;2023-01-04T11:51:42;98594.34;;;16.15;37.77
30873;BME280;17579;42.690;2.586;2023-01-04T11:54:18;98586.44;;;16.23;37.09
30873;BME280;17579;42.690;2.586;2023-01-04T11:56:57;98590.34;;;16.28;36.36
30873;BME280;17579;42.690;2.586;2023-01-04T11:59:24;98586.81;;;16.38;36.12
30873;BME280;17579;42.690;2.586;2023-01-04T12:01:50;98580.25;;;16.50;34.92
30873;BME280;17579;42.690;2.586;2023-01-04T12:04:25;98582.91;;;16.50;35.47
30873;BME280;17579;42.690;2.586;2023-01-04T12:06:55;98585.59;;;16.50;35.12
30873;BME280;17579;42.690;2.586;2023-01-04T12:09:21;98583.91;;;16.49;34.91
30873;BME280;17579;42.690;2.586;2023-01-04T12:11:50;98576.84;;;16.58;34.80
30873;BME280;17579;42.690;2.586;2023-01-04T12:14:29;98584.78;;;16.68;34.92
30873;BME280;17579;42.690;2.586;2023-01-04T12:17:05;98587.00;;;16.72;34.89
30873;BME280;17579;42.690;2.586;2023-01-04T12:19:36;98592.72;;;16.77;33.89
30873;BME280;17579;42.690;2.586;2023-01-04T12:25:03;98581.47;;;17.02;33.06
30873;BME280;17579;42.690;2.586;2023-01-04T12:27:29;98581.47;;;17.02;32.12
30873;BME280;17579;42.690;2.586;2023-01-04T12:30:04;98572.06;;;16.97;33.21
30873;BME280;17579;42.690;2.586;2023-01-04T12:32:38;98568.25;;;17.00;32.07
30873;BME280;17579;42.690;2.586;2023-01-04T12:38:02;98564.59;;;17.01;31.99
30873;BME280;17579;42.690;2.586;2023-01-04T12:43:25;98549.94;;;17.05;31.12
30873;BME280;17579;42.690;2.586;2023-01-04T13:01:09;98540.41;;;17.11;30.20
30873;BME280;17579;42.690;2.586;2023-01-04T13:03:46;98536.75;;;17.12;30.19
30873;BME280;17579;42.690;2.586;2023-01-04T13:06:12;98536.44;;;17.15;29.66
30873;BME280;17579;42.690;2.586;2023-01-04T13:08:42;98529.59;;;17.12;29.56
30873;BME280;17579;42.690;2.586;2023-01-04T13:14:09;98528.41;;;17.07;29.64
30873;BME280;17579;42.690;2.586;2023-01-04T13:16:56;98524.50;;;17.01;30.22
30873;BME280;17579;42.690;2.586;2023-01-04T13:19:29;98512.78;;;17.02;29.23
30873;BME280;17579;42.690;2.586;2023-01-04T13:21:55;98516.63;;;17.00;29.50
30873;BME280;17579;42.690;2.586;2023-01-04T13:24:26;98517.94;;;16.95;28.54
30873;BME280;17579;42.690;2.586;2023-01-04T13:26:53;98512.22;;;16.90;28.97
30873;BME280;17579;42.690;2.586;2023-01-04T13:29:23;98505.19;;;16.89;29.89
30873;BME280;17579;42.690;2.586;2023-01-04T13:31:58;98512.22;;;16.90;29.56
30873;BME280;17579;42.690;2.586;2023-01-04T13:34:42;98507.03;;;16.89;29.66
30873;BME280;17579;42.690;2.586;2023-01-04T13:37:21;98505.34;;;16.88;29.94
30873;BME280;17579;42.690;2.586;2023-01-04T13:39:57;98516.03;;;16.88;29.50
30873;BME280;17579;42.690;2.586;2023-01-04T13:42:35;98502.59;;;16.79;30.12
30873;BME280;17579;42.690;2.586;2023-01-04T13:45:25;98504.72;;;16.76;30.07
30873;BME280;17579;42.690;2.586;2023-01-04T13:47:57;98504.72;;;16.76;29.46
30873;BME280;17579;42.690;2.586;2023-01-04T13:50:39;98507.31;;;16.68;30.43
30873;BME280;17579;42.690;2.586;2023-01-04T13:53:28;98520.81;;;16.66;30.54
30873;BME280;17579;42.690;2.586;2023-01-04T13:55:57;98501.81;;;16.69;30.35
30873;BME280;17579;42.690;2.586;2023-01-04T13:58:31;98506.47;;;16.67;30.67
30873;BME280;17579;42.690;2.586;2023-01-04T14:01:06;98504.78;;;16.66;30.38
30873;BME280;17579;42.690;2.586;2023-01-04T14:03:41;98502.13;;;16.66;30.82
30873;BME280;17579;42.690;2.586;2023-01-04T14:06:28;98507.75;;;16.63;30.64
30873;BME280;17579;42.690;2.586;2023-01-04T14:09:14;98497.91;;;16.63;30.76
30873;BME280;17579;42.690;2.586;2023-01-04T14:11:43;98490.28;;;16.69;30.12
30873;BME280;17579;42.690;2.586;2023-01-04T14:14:38;98487.22;;;16.63;30.78
30873;BME280;17579;42.690;2.586;2023-01-04T14:17:34;98488.25;;;16.62;30.64
30873;BME280;17579;42.690;2.586;2023-01-04T14:22:57;98485.41;;;16.64;30.17
30873;BME280;17579;42.690;2.586;2023-01-04T14:28:27;98496.41;;;16.61;29.89
30873;BME280;17579;42.690;2.586;2023-01-04T14:33:47;98499.28;;;16.68;29.82
30873;BME280;17579;42.690;2.586;2023-01-04T14:36:28;98489.81;;;16.73;29.28
30873;BME280;17579;42.690;2.586;2023-01-04T14:39:10;98507.38;;;16.76;29.63